sensor_id;sensor_type;location;lat;lon;timestamp;temperature;humidity
51035;DHT22;37062;52.546;13.230;2023-07-31T00:01:28;18.20;99.90
51035;DHT22;37062;52.546;13.230;2023-07-31T00:03:56;18.20;99.90
51035;DHT22;37062;52.546;13.230;2023-07-31T00:06:26;18.20;99.90
51035;DHT22;37062;52.546;13.230;2023-07-31T00:08:54;18.10;99.90
51035;DHT22;37062;52.546;13.230;2023-07-31T00:11:22;18.10;99.90
51035;DHT22;37062;52.546;13.230;2023-07-31T00:13:50;18.00;99.90
51035;DHT22;37062;52.546;13.230;2023-07-31T00:16:18;17.90;99.90
51035;DHT22;37062;52.546;13.230;2023-07-31T00:18:47;17.90;99.90
51035;DHT22;37062;52.546;13.230;2023-07-31T00:21:15;17.80;99.90
51035;DHT22;37062;52.546;13.230;2023-07-31T00:23:45;17.80;99.90
51035;DHT22;37062;52.546;13.230;2023-07-31T00:26:13;17.80;99.90
51035;DHT22;37062;52.546;13.230;2023-07-31T00:28:41;17.80;99.90
51035;DHT22;37062;52.546;13.230;2023-07-31T00:31:09;17.80;99.90
51035;DHT22;37062;52.546;13.230;2023-07-31T00:33:38;17.80;99.90
51035;DHT22;37062;52.546;13.230;2023-07-31T00:36:06;17.80;99.90
51035;DHT22;37062;52.546;13.230;2023-07-31T00:38:34;17.90;99.90
51035;DHT22;37062;52.546;13.230;2023-07-31T00:41:04;17.80;99.90
51035;DHT22;37062;52.546;13.230;2023-07-31T00:43:32;17.90;99.90
51035;DHT22;37062;52.546;13.230;2023-07-31T00:46:01;17.90;99.90
51035;DHT22;37062;52.546;13.230;2023-07-31T00:48:29;17.80;99.90
51035;DHT22;37062;52.546;13.230;2023-07-31T00:50:58;17.80;99.90
51035;DHT22;37062;52.546;13.230;2023-07-31T00:53:28;17.80;99.90
51035;DHT22;37062;52.546;13.230;2023-07-31T00:55:57;17.70;99.90
51035;DHT22;37062;52.546;13.230;2023-07-31T00:58:27;17.70;99.90
51035;DHT22;37062;52.546;13.230;2023-07-31T01:00:55;17.70;99.90
51035;DHT22;37062;52.546;13.230;2023-07-31T01:03:25;17.80;99.90
51035;DHT22;37062;52.546;13.230;2023-07-31T01:06:06;17.80;99.90
51035;DHT22;37062;52.546;13.230;2023-07-31T01:08:44;17.70;99.90
51035;DHT22;37062;52.546;13.230;2023-07-31T01:11:17;17.70;99.90
51035;DHT22;37062;52.546;13.230;2023-07-31T01:13:49;17.80;99.90
51035;DHT22;37062;52.546;13.230;2023-07-31T01:16:18;17.80;99.90
51035;DHT22;37062;52.546;13.230;2023-07-31T01:18:46;17.80;99.90
51035;DHT22;37062;52.546;13.230;2023-07-31T01:21:25;17.80;99.90
51035;DHT22;37062;52.546;13.230;2023-07-31T01:24:12;17.80;99.90
51035;DHT22;37062;52.546;13.230;2023-07-31T01:26:49;17.80;99.90
51035;DHT22;37062;52.546;13.230;2023-07-31T01:29:26;17.80;99.90
51035;DHT22;37062;52.546;13.230;2023-07-31T01:32:01;17.80;99.90
51035;DHT22;37062;52.546;13.230;2023-07-31T01:34:30;17.80;99.90
51035;DHT22;37062;52.546;13.230;2023-07-31T01:36:59;17.80;99.90
51035;DHT22;37062;52.546;13.230;2023-07-31T01:39:27;17.90;99.90
51035;DHT22;37062;52.546;13.230;2023-07-31T01:41:57;17.90;99.90
51035;DHT22;37062;52.546;13.230;2023-07-31T01:44:26;17.90;99.90
51035;DHT22;37062;52.546;13.230;2023-07-31T01:46:54;17.90;99.90
51035;DHT22;37062;52.546;13.230;2023-07-31T01:49:23;17.90;99.90
51035;DHT22;37062;52.546;13.230;2023-07-31T01:51:51;17.90;99.90
51035;DHT22;37062;52.546;13.230;2023-07-31T01:54:19;17.90;99.90
51035;DHT22;37062;52.546;13.230;2023-07-31T01:56:47;17.90;99.90
51035;DHT22;37062;52.546;13.230;2023-07-31T01:59:17;17.90;99.90
51035;DHT22;37062;52.546;13.230;2023-07-31T02:01:45;17.90;99.90
51035;DHT22;37062;52.546;13.230;2023-07-31T02:04:13;17.90;99.90
51035;DHT22;37062;52.546;13.230;2023-07-31T02:06:43;17.90;99.90
51035;DHT22;37062;52.546;13.230;2023-07-31T02:09:11;17.90;99.90
51035;DHT22;37062;52.546;13.230;2023-07-31T02:11:40;17.90;99.90
51035;DHT22;37062;52.546;13.230;2023-07-31T02:14:09;17.90;99.90
51035;DHT22;37062;52.546;13.230;2023-07-31T02:16:39;17.90;99.90
51035;DHT22;37062;52.546;13.230;2023-07-31T02:19:10;17.90;99.90
51035;DHT22;37062;52.546;13.230;2023-07-31T02:21:38;17.90;99.90
51035;DHT22;37062;52.546;13.230;2023-07-31T02:24:06;17.90;99.90
51035;DHT22;37062;52.546;13.230;2023-07-31T02:26:35;17.90;99.90
51035;DHT22;37062;52.546;13.230;2023-07-31T02:29:03;17.80;99.90
51035;DHT22;37062;52.546;13.230;2023-07-31T02:31:31;17.90;99.90
51035;DHT22;37062;52.546;13.230;2023-07-31T02:34:01;17.90;99.90
51035;DHT22;37062;52.546;13.230;2023-07-31T02:36:29;17.90;99.90
51035;DHT22;37062;52.546;13.230;2023-07-31T02:38:57;17.90;99.90
51035;DHT22;37062;52.546;13.230;2023-07-31T02:41:26;17.90;99.90
51035;DHT22;37062;52.546;13.230;2023-07-31T02:43:54;17.90;99.90
51035;DHT22;37062;52.546;13.230;2023-07-31T02:46:22;17.90;99.90
51035;DHT22;37062;52.546;13.230;2023-07-31T02:48:51;18.00;99.90
51035;DHT22;37062;52.546;13.230;2023-07-31T02:51:22;18.00;99.90
51035;DHT22;37062;52.546;13.230;2023-07-31T02:53:50;17.90;99.90
51035;DHT22;37062;52.546;13.230;2023-07-31T02:56:18;17.90;99.90
51035;DHT22;37062;52.546;13.230;2023-07-31T02:58:46;18.00;99.90
51035;DHT22;37062;52.546;13.230;2023-07-31T03:01:15;18.00;99.90
51035;DHT22;37062;52.546;13.230;2023-07-31T03:03:43;18.00;99.90
51035;DHT22;37062;52.546;13.230;2023-07-31T03:06:11;18.00;99.90
51035;DHT22;37062;52.546;13.230;2023-07-31T03:08:41;18.00;99.90
51035;DHT22;37062;52.546;13.230;2023-07-31T03:11:09;17.90;99.90
51035;DHT22;37062;52.546;13.230;2023-07-31T03:13:37;17.90;99.90
51035;DHT22;37062;52.546;13.230;2023-07-31T03:16:05;17.90;99.90
51035;DHT22;37062;52.546;13.230;2023-07-31T03:18:34;18.00;99.90
51035;DHT22;37062;52.546;13.230;2023-07-31T03:21:02;18.00;99.90
51035;DHT22;37062;52.546;13.230;2023-07-31T03:23:30;18.00;99.90
51035;DHT22;37062;52.546;13.230;2023-07-31T03:26:01;18.00;99.90
51035;DHT22;37062;52.546;13.230;2023-07-31T03:28:30;17.90;99.90
51035;DHT22;37062;52.546;13.230;2023-07-31T03:30:58;17.90;99.90
51035;DHT22;37062;52.546;13.230;2023-07-31T03:33:26;17.90;99.90
51035;DHT22;37062;52.546;13.230;2023-07-31T03:35:55;17.90;99.90
51035;DHT22;37062;52.546;13.230;2023-07-31T03:38:23;17.90;99.90
51035;DHT22;37062;52.546;13.230;2023-07-31T03:40:53;17.90;99.90
51035;DHT22;37062;52.546;13.230;2023-07-31T03:43:22;17.90;99.90
51035;DHT22;37062;52.546;13.230;2023-07-31T03:45:52;17.90;99.90
51035;DHT22;37062;52.546;13.230;2023-07-31T03:48:20;17.90;99.90
51035;DHT22;37062;52.546;13.230;2023-07-31T03:50:49;17.90;99.90
51035;DHT22;37062;52.546;13.230;2023-07-31T03:53:17;17.90;99.90
51035;DHT22;37062;52.546;13.230;2023-07-31T03:55:45;17.90;99.90
51035;DHT22;37062;52.546;13.230;2023-07-31T03:58:13;17.90;99.90
51035;DHT22;37062;52.546;13.230;2023-07-31T04:00:43;17.90;99.90
51035;DHT22;37062;52.546;13.230;2023-07-31T04:03:11;17.90;99.90
51035;DHT22;37062;52.546;13.230;2023-07-31T04:05:39;17.90;99.90
51035;DHT22;37062;52.546;13.230;2023-07-31T04:08:08;17.90;99.90
51035;DHT22;37062;52.546;13.230;2023-07-31T04:10:36;17.90;99.90
51035;DHT22;37062;52.546;13.230;2023-07-31T04:13:04;17.90;99.90
51035;DHT22;37062;52.546;13.230;2023-07-31T04:15:32;17.90;99.90
51035;DHT22;37062;52.546;13.230;2023-07-31T04:18:02;17.90;99.90
51035;DHT22;37062;52.546;13.230;2023-07-31T04:20:30;17.90;99.90
51035;DHT22;37062;52.546;13.230;2023-07-31T04:22:58;17.90;99.90
51035;DHT22;37062;52.546;13.230;2023-07-31T04:25:27;17.90;99.90
51035;DHT22;37062;52.546;13.230;2023-07-31T04:27:55;18.00;99.90
51035;DHT22;37062;52.546;13.230;2023-07-31T04:30:24;18.00;99.90
51035;DHT22;37062;52.546;13.230;2023-07-31T04:32:52;18.00;99.90
51035;DHT22;37062;52.546;13.230;2023-07-31T04:35:22;18.00;99.90
51035;DHT22;37062;52.546;13.230;2023-07-31T04:37:50;18.00;99.90
51035;DHT22;37062;52.546;13.230;2023-07-31T04:40:18;18.00;99.90
51035;DHT22;37062;52.546;13.230;2023-07-31T04:42:46;18.10;99.90
51035;DHT22;37062;52.546;13.230;2023-07-31T04:45:15;18.10;99.90
51035;DHT22;37062;52.546;13.230;2023-07-31T04:47:43;18.10;99.90
51035;DHT22;37062;52.546;13.230;2023-07-31T04:50:11;18.10;99.90
51035;DHT22;37062;52.546;13.230;2023-07-31T04:52:41;18.20;99.90
51035;DHT22;37062;52.546;13.230;2023-07-31T04:55:09;18.20;99.90
51035;DHT22;37062;52.546;13.230;2023-07-31T04:57:37;18.20;99.90
51035;DHT22;37062;52.546;13.230;2023-07-31T05:00:07;18.20;99.90
51035;DHT22;37062;52.546;13.230;2023-07-31T05:02:35;18.20;99.90
51035;DHT22;37062;52.546;13.230;2023-07-31T05:05:04;18.30;99.90
51035;DHT22;37062;52.546;13.230;2023-07-31T05:07:32;18.30;99.90
51035;DHT22;37062;52.546;13.230;2023-07-31T05:10:02;18.40;99.90
51035;DHT22;37062;52.546;13.230;2023-07-31T05:12:30;18.40;99.90
51035;DHT22;37062;52.546;13.230;2023-07-31T05:14:58;18.40;99.90
51035;DHT22;37062;52.546;13.230;2023-07-31T05:17:26;18.50;99.90
51035;DHT22;37062;52.546;13.230;2023-07-31T05:19:54;18.50;99.90
51035;DHT22;37062;52.546;13.230;2023-07-31T05:22:23;18.50;99.90
51035;DHT22;37062;52.546;13.230;2023-07-31T05:24:51;18.60;99.90
51035;DHT22;37062;52.546;13.230;2023-07-31T05:27:22;18.50;99.90
51035;DHT22;37062;52.546;13.230;2023-07-31T05:29:50;18.60;99.90
51035;DHT22;37062;52.546;13.230;2023-07-31T05:32:18;18.60;99.90
51035;DHT22;37062;52.546;13.230;2023-07-31T05:34:47;18.60;99.90
51035;DHT22;37062;52.546;13.230;2023-07-31T05:37:15;18.70;99.90
51035;DHT22;37062;52.546;13.230;2023-07-31T05:39:43;18.70;99.90
51035;DHT22;37062;52.546;13.230;2023-07-31T05:42:11;18.70;99.90
51035;DHT22;37062;52.546;13.230;2023-07-31T05:44:41;18.70;99.90
51035;DHT22;37062;52.546;13.230;2023-07-31T05:47:09;18.70;99.90
51035;DHT22;37062;52.546;13.230;2023-07-31T05:49:37;18.70;99.90
51035;DHT22;37062;52.546;13.230;2023-07-31T05:52:06;18.70;99.90
51035;DHT22;37062;52.546;13.230;2023-07-31T05:54:34;18.70;99.90
51035;DHT22;37062;52.546;13.230;2023-07-31T05:57:03;18.70;99.90
51035;DHT22;37062;52.546;13.230;2023-07-31T05:59:31;18.80;99.90
51035;DHT22;37062;52.546;13.230;2023-07-31T06:02:01;18.80;99.90
51035;DHT22;37062;52.546;13.230;2023-07-31T06:04:29;18.90;99.90
51035;DHT22;37062;52.546;13.230;2023-07-31T06:06:57;18.90;99.90
51035;DHT22;37062;52.546;13.230;2023-07-31T06:09:26;18.90;99.90
51035;DHT22;37062;52.546;13.230;2023-07-31T06:11:54;19.00;99.90
51035;DHT22;37062;52.546;13.230;2023-07-31T06:14:23;19.00;99.90
51035;DHT22;37062;52.546;13.230;2023-07-31T06:16:51;19.10;99.90
51035;DHT22;37062;52.546;13.230;2023-07-31T06:19:20;19.10;99.90
51035;DHT22;37062;52.546;13.230;2023-07-31T06:21:49;19.20;99.90
51035;DHT22;37062;52.546;13.230;2023-07-31T06:24:18;19.20;99.90
51035;DHT22;37062;52.546;13.230;2023-07-31T06:26:47;19.30;99.90
51035;DHT22;37062;52.546;13.230;2023-07-31T06:29:15;19.30;99.90
51035;DHT22;37062;52.546;13.230;2023-07-31T06:31:44;19.40;99.90
51035;DHT22;37062;52.546;13.230;2023-07-31T06:34:12;19.40;99.90
51035;DHT22;37062;52.546;13.230;2023-07-31T06:36:42;19.50;99.90
51035;DHT22;37062;52.546;13.230;2023-07-31T06:39:10;19.50;99.90
51035;DHT22;37062;52.546;13.230;2023-07-31T06:41:38;19.60;99.90
51035;DHT22;37062;52.546;13.230;2023-07-31T06:44:10;19.70;99.90
51035;DHT22;37062;52.546;13.230;2023-07-31T06:46:38;19.70;99.90
51035;DHT22;37062;52.546;13.230;2023-07-31T06:49:07;19.70;99.90
51035;DHT22;37062;52.546;13.230;2023-07-31T06:51:35;19.70;99.90
51035;DHT22;37062;52.546;13.230;2023-07-31T06:54:07;19.80;99.90
51035;DHT22;37062;52.546;13.230;2023-07-31T06:56:35;19.90;99.90
51035;DHT22;37062;52.546;13.230;2023-07-31T06:59:07;19.90;99.90
51035;DHT22;37062;52.546;13.230;2023-07-31T07:01:35;20.00;99.90
51035;DHT22;37062;52.546;13.230;2023-07-31T07:04:03;20.00;99.90
51035;DHT22;37062;52.546;13.230;2023-07-31T07:06:31;20.00;99.90
51035;DHT22;37062;52.546;13.230;2023-07-31T07:09:00;20.00;99.90
51035;DHT22;37062;52.546;13.230;2023-07-31T07:11:29;20.00;99.90
51035;DHT22;37062;52.546;13.230;2023-07-31T07:13:58;20.00;99.90
51035;DHT22;37062;52.546;13.230;2023-07-31T07:16:28;20.00;99.90
51035;DHT22;37062;52.546;13.230;2023-07-31T07:18:57;20.00;99.90
51035;DHT22;37062;52.546;13.230;2023-07-31T07:21:31;20.10;99.90
51035;DHT22;37062;52.546;13.230;2023-07-31T07:23:59;20.30;99.90
51035;DHT22;37062;52.546;13.230;2023-07-31T07:26:28;20.50;99.90
51035;DHT22;37062;52.546;13.230;2023-07-31T07:28:57;20.60;99.90
51035;DHT22;37062;52.546;13.230;2023-07-31T07:31:27;20.60;99.90
51035;DHT22;37062;52.546;13.230;2023-07-31T07:33:56;20.60;99.90
51035;DHT22;37062;52.546;13.230;2023-07-31T07:36:24;20.70;99.90
51035;DHT22;37062;52.546;13.230;2023-07-31T07:38:52;20.80;99.90
51035;DHT22;37062;52.546;13.230;2023-07-31T07:41:20;20.90;99.90
51035;DHT22;37062;52.546;13.230;2023-07-31T07:43:50;20.90;99.90
51035;DHT22;37062;52.546;13.230;2023-07-31T07:46:19;20.90;99.90
51035;DHT22;37062;52.546;13.230;2023-07-31T07:48:47;20.90;99.90
51035;DHT22;37062;52.546;13.230;2023-07-31T07:51:15;20.90;99.90
51035;DHT22;37062;52.546;13.230;2023-07-31T07:53:43;20.80;99.90
51035;DHT22;37062;52.546;13.230;2023-07-31T07:56:11;20.90;99.90
51035;DHT22;37062;52.546;13.230;2023-07-31T07:58:40;20.90;99.90
51035;DHT22;37062;52.546;13.230;2023-07-31T08:01:09;20.90;99.90
51035;DHT22;37062;52.546;13.230;2023-07-31T08:03:37;20.90;99.90
51035;DHT22;37062;52.546;13.230;2023-07-31T08:06:05;20.90;99.90
51035;DHT22;37062;52.546;13.230;2023-07-31T08:08:36;20.80;99.90
51035;DHT22;37062;52.546;13.230;2023-07-31T08:11:04;20.90;99.90
51035;DHT22;37062;52.546;13.230;2023-07-31T08:13:33;20.80;99.90
51035;DHT22;37062;52.546;13.230;2023-07-31T08:16:03;20.80;99.90
51035;DHT22;37062;52.546;13.230;2023-07-31T08:18:33;20.80;99.90
51035;DHT22;37062;52.546;13.230;2023-07-31T08:21:02;20.80;99.90
51035;DHT22;37062;52.546;13.230;2023-07-31T08:23:30;20.80;99.90
51035;DHT22;37062;52.546;13.230;2023-07-31T08:25:58;20.80;99.90
51035;DHT22;37062;52.546;13.230;2023-07-31T08:28:27;20.80;99.90
51035;DHT22;37062;52.546;13.230;2023-07-31T08:30:55;20.80;99.90
51035;DHT22;37062;52.546;13.230;2023-07-31T08:33:23;20.90;99.90
51035;DHT22;37062;52.546;13.230;2023-07-31T08:35:53;20.90;99.90
51035;DHT22;37062;52.546;13.230;2023-07-31T08:38:21;20.90;99.90
51035;DHT22;37062;52.546;13.230;2023-07-31T08:40:52;21.00;99.90
51035;DHT22;37062;52.546;13.230;2023-07-31T08:43:24;21.10;99.90
51035;DHT22;37062;52.546;13.230;2023-07-31T08:45:53;21.20;99.90
51035;DHT22;37062;52.546;13.230;2023-07-31T08:48:22;21.30;99.90
51035;DHT22;37062;52.546;13.230;2023-07-31T08:50:53;21.40;99.90
51035;DHT22;37062;52.546;13.230;2023-07-31T08:53:21;21.50;99.90
51035;DHT22;37062;52.546;13.230;2023-07-31T08:55:49;21.50;99.90
51035;DHT22;37062;52.546;13.230;2023-07-31T08:58:20;21.60;99.90
51035;DHT22;37062;52.546;13.230;2023-07-31T09:00:49;21.70;99.90
51035;DHT22;37062;52.546;13.230;2023-07-31T09:03:22;21.90;99.90
51035;DHT22;37062;52.546;13.230;2023-07-31T09:05:53;21.90;99.90
51035;DHT22;37062;52.546;13.230;2023-07-31T09:08:23;21.80;99.90
51035;DHT22;37062;52.546;13.230;2023-07-31T09:10:52;21.80;99.90
51035;DHT22;37062;52.546;13.230;2023-07-31T09:13:21;21.90;99.90
51035;DHT22;37062;52.546;13.230;2023-07-31T09:15:49;21.90;99.90
51035;DHT22;37062;52.546;13.230;2023-07-31T09:18:18;21.80;99.90
51035;DHT22;37062;52.546;13.230;2023-07-31T09:21:02;21.80;99.90
51035;DHT22;37062;52.546;13.230;2023-07-31T09:23:43;21.80;99.90
51035;DHT22;37062;52.546;13.230;2023-07-31T09:26:11;21.70;99.90
51035;DHT22;37062;52.546;13.230;2023-07-31T09:28:56;21.70;99.90
51035;DHT22;37062;52.546;13.230;2023-07-31T09:31:38;21.60;99.90
51035;DHT22;37062;52.546;13.230;2023-07-31T09:34:07;21.60;99.90
51035;DHT22;37062;52.546;13.230;2023-07-31T09:36:41;21.50;99.90
51035;DHT22;37062;52.546;13.230;2023-07-31T09:39:10;21.40;99.90
51035;DHT22;37062;52.546;13.230;2023-07-31T09:41:39;21.40;99.90
51035;DHT22;37062;52.546;13.230;2023-07-31T09:44:08;21.40;99.90
51035;DHT22;37062;52.546;13.230;2023-07-31T09:46:36;21.40;99.90
51035;DHT22;37062;52.546;13.230;2023-07-31T09:49:09;21.50;99.90
51035;DHT22;37062;52.546;13.230;2023-07-31T09:51:37;21.50;99.90
51035;DHT22;37062;52.546;13.230;2023-07-31T09:54:11;21.60;99.90
51035;DHT22;37062;52.546;13.230;2023-07-31T09:56:43;21.60;99.90
51035;DHT22;37062;52.546;13.230;2023-07-31T09:59:13;21.70;99.90
51035;DHT22;37062;52.546;13.230;2023-07-31T10:01:42;21.70;99.90
51035;DHT22;37062;52.546;13.230;2023-07-31T10:04:11;21.70;99.90
51035;DHT22;37062;52.546;13.230;2023-07-31T10:06:40;21.80;99.90
51035;DHT22;37062;52.546;13.230;2023-07-31T10:09:12;21.80;99.90
51035;DHT22;37062;52.546;13.230;2023-07-31T10:11:46;21.80;99.90
51035;DHT22;37062;52.546;13.230;2023-07-31T10:14:18;21.80;99.90
51035;DHT22;37062;52.546;13.230;2023-07-31T10:16:47;21.80;99.90
51035;DHT22;37062;52.546;13.230;2023-07-31T10:19:16;21.70;99.90
51035;DHT22;37062;52.546;13.230;2023-07-31T10:21:45;21.70;99.90
51035;DHT22;37062;52.546;13.230;2023-07-31T10:24:16;21.60;99.90
51035;DHT22;37062;52.546;13.230;2023-07-31T10:26:45;21.70;99.90
51035;DHT22;37062;52.546;13.230;2023-07-31T10:29:14;21.70;99.90
51035;DHT22;37062;52.546;13.230;2023-07-31T10:31:45;21.80;99.90
51035;DHT22;37062;52.546;13.230;2023-07-31T10:34:13;21.80;99.90
51035;DHT22;37062;52.546;13.230;2023-07-31T10:36:42;21.90;99.90
51035;DHT22;37062;52.546;13.230;2023-07-31T10:39:36;21.90;99.90
51035;DHT22;37062;52.546;13.230;2023-07-31T10:42:12;22.00;99.90
51035;DHT22;37062;52.546;13.230;2023-07-31T10:44:44;22.20;99.90
51035;DHT22;37062;52.546;13.230;2023-07-31T10:47:14;22.40;99.90
51035;DHT22;37062;52.546;13.230;2023-07-31T10:49:45;22.60;99.90
51035;DHT22;37062;52.546;13.230;2023-07-31T10:52:13;22.90;99.90
51035;DHT22;37062;52.546;13.230;2023-07-31T10:54:43;23.10;99.90
51035;DHT22;37062;52.546;13.230;2023-07-31T10:57:20;23.30;99.90
51035;DHT22;37062;52.546;13.230;2023-07-31T10:59:48;23.50;99.90
51035;DHT22;37062;52.546;13.230;2023-07-31T11:02:26;23.70;99.90
51035;DHT22;37062;52.546;13.230;2023-07-31T11:05:07;23.90;99.90
51035;DHT22;37062;52.546;13.230;2023-07-31T11:07:57;24.00;99.90
51035;DHT22;37062;52.546;13.230;2023-07-31T11:10:26;24.10;99.90
51035;DHT22;37062;52.546;13.230;2023-07-31T11:12:54;24.10;99.90
51035;DHT22;37062;52.546;13.230;2023-07-31T11:15:26;24.10;99.90
51035;DHT22;37062;52.546;13.230;2023-07-31T11:17:55;24.00;99.90
51035;DHT22;37062;52.546;13.230;2023-07-31T11:20:25;24.00;99.90
51035;DHT22;37062;52.546;13.230;2023-07-31T11:22:53;24.00;99.90
51035;DHT22;37062;52.546;13.230;2023-07-31T11:25:22;23.90;99.90
51035;DHT22;37062;52.546;13.230;2023-07-31T11:27:52;23.90;99.90
51035;DHT22;37062;52.546;13.230;2023-07-31T11:30:21;23.90;99.90
51035;DHT22;37062;52.546;13.230;2023-07-31T11:32:49;23.80;99.90
51035;DHT22;37062;52.546;13.230;2023-07-31T11:35:18;23.80;99.90
51035;DHT22;37062;52.546;13.230;2023-07-31T11:37:46;23.70;99.90
51035;DHT22;37062;52.546;13.230;2023-07-31T11:40:15;23.50;99.90
51035;DHT22;37062;52.546;13.230;2023-07-31T11:42:46;23.50;99.90
51035;DHT22;37062;52.546;13.230;2023-07-31T11:45:15;23.50;99.90
51035;DHT22;37062;52.546;13.230;2023-07-31T11:47:43;23.60;99.90
51035;DHT22;37062;52.546;13.230;2023-07-31T11:50:12;23.60;99.90
51035;DHT22;37062;52.546;13.230;2023-07-31T11:52:42;23.60;99.90
51035;DHT22;37062;52.546;13.230;2023-07-31T11:55:12;23.60;99.90
51035;DHT22;37062;52.546;13.230;2023-07-31T11:57:43;23.70;99.90
51035;DHT22;37062;52.546;13.230;2023-07-31T12:00:14;23.70;99.90
51035;DHT22;37062;52.546;13.230;2023-07-31T12:02:43;23.60;99.90
51035;DHT22;37062;52.546;13.230;2023-07-31T12:05:12;23.50;99.90
51035;DHT22;37062;52.546;13.230;2023-07-31T12:07:47;23.40;99.90
51035;DHT22;37062;52.546;13.230;2023-07-31T12:10:34;23.40;99.90
51035;DHT22;37062;52.546;13.230;2023-07-31T12:13:04;23.40;99.90
51035;DHT22;37062;52.546;13.230;2023-07-31T12:15:35;23.50;99.90
51035;DHT22;37062;52.546;13.230;2023-07-31T12:18:05;23.50;99.90
51035;DHT22;37062;52.546;13.230;2023-07-31T12:20:34;23.70;99.90
51035;DHT22;37062;52.546;13.230;2023-07-31T12:23:02;23.70;99.90
51035;DHT22;37062;52.546;13.230;2023-07-31T12:25:31;23.70;99.90
51035;DHT22;37062;52.546;13.230;2023-07-31T12:28:07;23.70;99.90
51035;DHT22;37062;52.546;13.230;2023-07-31T12:30:40;23.60;99.90
51035;DHT22;37062;52.546;13.230;2023-07-31T12:33:13;23.70;99.90
51035;DHT22;37062;52.546;13.230;2023-07-31T12:35:44;23.80;99.90
51035;DHT22;37062;52.546;13.230;2023-07-31T12:38:13;23.70;99.90
51035;DHT22;37062;52.546;13.230;2023-07-31T12:40:41;23.70;99.90
51035;DHT22;37062;52.546;13.230;2023-07-31T12:43:10;23.70;99.90
51035;DHT22;37062;52.546;13.230;2023-07-31T12:45:39;23.70;99.90
51035;DHT22;37062;52.546;13.230;2023-07-31T12:48:07;23.60;99.90
51035;DHT22;37062;52.546;13.230;2023-07-31T12:50:36;23.50;99.90
51035;DHT22;37062;52.546;13.230;2023-07-31T12:53:05;23.50;99.90
51035;DHT22;37062;52.546;13.230;2023-07-31T12:55:34;23.40;99.90
51035;DHT22;37062;52.546;13.230;2023-07-31T12:58:04;23.30;99.90
51035;DHT22;37062;52.546;13.230;2023-07-31T13:00:32;23.40;99.90
51035;DHT22;37062;52.546;13.230;2023-07-31T13:03:02;23.40;99.90
51035;DHT22;37062;52.546;13.230;2023-07-31T13:05:30;23.30;99.90
51035;DHT22;37062;52.546;13.230;2023-07-31T13:07:59;23.10;99.90
51035;DHT22;37062;52.546;13.230;2023-07-31T13:10:27;23.00;99.90
51035;DHT22;37062;52.546;13.230;2023-07-31T13:12:56;23.10;99.90
51035;DHT22;37062;52.546;13.230;2023-07-31T13:15:24;23.20;99.90
51035;DHT22;37062;52.546;13.230;2023-07-31T13:17:53;23.40;99.90
51035;DHT22;37062;52.546;13.230;2023-07-31T13:20:22;23.50;99.90
51035;DHT22;37062;52.546;13.230;2023-07-31T13:22:50;23.70;99.90
51035;DHT22;37062;52.546;13.230;2023-07-31T13:25:18;23.80;99.90
51035;DHT22;37062;52.546;13.230;2023-07-31T13:27:47;23.90;99.90
51035;DHT22;37062;52.546;13.230;2023-07-31T13:30:15;24.00;99.90
51035;DHT22;37062;52.546;13.230;2023-07-31T13:32:43;24.10;99.90
51035;DHT22;37062;52.546;13.230;2023-07-31T13:35:11;24.20;99.90
51035;DHT22;37062;52.546;13.230;2023-07-31T13:37:41;24.30;99.90
51035;DHT22;37062;52.546;13.230;2023-07-31T13:40:10;24.40;99.90
51035;DHT22;37062;52.546;13.230;2023-07-31T13:42:38;24.60;99.90
51035;DHT22;37062;52.546;13.230;2023-07-31T13:45:07;24.60;99.90
51035;DHT22;37062;52.546;13.230;2023-07-31T13:47:35;24.60;99.90
51035;DHT22;37062;52.546;13.230;2023-07-31T13:50:04;24.60;99.90
51035;DHT22;37062;52.546;13.230;2023-07-31T13:52:33;24.60;99.90
51035;DHT22;37062;52.546;13.230;2023-07-31T13:55:02;24.50;99.90
51035;DHT22;37062;52.546;13.230;2023-07-31T13:57:31;24.40;99.90
51035;DHT22;37062;52.546;13.230;2023-07-31T13:59:59;24.30;99.90
51035;DHT22;37062;52.546;13.230;2023-07-31T14:02:30;24.30;99.90
51035;DHT22;37062;52.546;13.230;2023-07-31T14:04:58;24.20;99.90
51035;DHT22;37062;52.546;13.230;2023-07-31T14:07:27;24.20;99.90
51035;DHT22;37062;52.546;13.230;2023-07-31T14:09:55;24.20;99.90
51035;DHT22;37062;52.546;13.230;2023-07-31T14:12:24;24.20;99.90
51035;DHT22;37062;52.546;13.230;2023-07-31T14:15:09;24.30;99.90
51035;DHT22;37062;52.546;13.230;2023-07-31T14:17:38;24.30;99.90
51035;DHT22;37062;52.546;13.230;2023-07-31T14:20:08;24.30;99.90
51035;DHT22;37062;52.546;13.230;2023-07-31T14:22:37;24.30;99.90
51035;DHT22;37062;52.546;13.230;2023-07-31T14:25:06;24.40;99.90
51035;DHT22;37062;52.546;13.230;2023-07-31T14:27:35;24.40;99.90
51035;DHT22;37062;52.546;13.230;2023-07-31T14:30:04;24.50;99.90
51035;DHT22;37062;52.546;13.230;2023-07-31T14:32:33;24.50;99.90
51035;DHT22;37062;52.546;13.230;2023-07-31T14:35:01;24.50;99.90
51035;DHT22;37062;52.546;13.230;2023-07-31T14:37:37;24.50;99.90
51035;DHT22;37062;52.546;13.230;2023-07-31T14:40:06;24.40;99.90
51035;DHT22;37062;52.546;13.230;2023-07-31T14:42:36;24.40;99.90
51035;DHT22;37062;52.546;13.230;2023-07-31T14:45:06;24.30;99.90
51035;DHT22;37062;52.546;13.230;2023-07-31T14:47:34;24.40;99.90
51035;DHT22;37062;52.546;13.230;2023-07-31T14:50:03;24.30;99.90
51035;DHT22;37062;52.546;13.230;2023-07-31T14:52:32;24.30;99.90
51035;DHT22;37062;52.546;13.230;2023-07-31T14:55:00;24.30;99.90
51035;DHT22;37062;52.546;13.230;2023-07-31T14:57:28;24.20;99.90
51035;DHT22;37062;52.546;13.230;2023-07-31T14:59:57;24.30;99.90
51035;DHT22;37062;52.546;13.230;2023-07-31T15:02:26;24.20;99.90
51035;DHT22;37062;52.546;13.230;2023-07-31T15:04:55;24.30;99.90
51035;DHT22;37062;52.546;13.230;2023-07-31T15:07:23;24.20;99.90
51035;DHT22;37062;52.546;13.230;2023-07-31T15:09:51;24.10;99.90
51035;DHT22;37062;52.546;13.230;2023-07-31T15:12:19;24.10;99.90
51035;DHT22;37062;52.546;13.230;2023-07-31T15:14:48;24.10;99.90
51035;DHT22;37062;52.546;13.230;2023-07-31T15:17:17;24.10;99.90
51035;DHT22;37062;52.546;13.230;2023-07-31T15:19:46;24.20;99.90
51035;DHT22;37062;52.546;13.230;2023-07-31T15:22:14;24.30;99.90
51035;DHT22;37062;52.546;13.230;2023-07-31T15:24:42;24.40;99.90
51035;DHT22;37062;52.546;13.230;2023-07-31T15:27:10;24.40;99.90
51035;DHT22;37062;52.546;13.230;2023-07-31T15:29:38;24.40;99.90